createdAt,value
2019-05-20T00:00:53.986Z,97.60
2019-05-20T00:03:24.456Z,97.60
2019-05-20T00:05:54.987Z,97.70
2019-05-20T00:08:25.502Z,98.20
2019-05-20T00:10:55.954Z,98.30
2019-05-20T00:13:26.424Z,98.60
2019-05-20T00:15:56.872Z,98.60
2019-05-20T00:18:27.392Z,98.60
2019-05-20T00:20:57.880Z,98.60
2019-05-20T00:23:28.404Z,98.80
2019-05-20T00:25:58.911Z,98.90
2019-05-20T00:28:29.395Z,98.90
2019-05-20T00:30:59.905Z,98.80
2019-05-20T00:33:30.404Z,98.60
2019-05-20T00:36:00.901Z,98.40
2019-05-20T00:38:31.518Z,98.20
2019-05-20T00:41:02.108Z,98.10
2019-05-20T00:43:32.749Z,98.10
2019-05-20T00:46:03.464Z,98.20
2019-05-20T00:48:34.045Z,98.30
2019-05-20T00:51:04.548Z,98.40
2019-05-20T00:53:35.055Z,98.30
2019-05-20T00:56:05.707Z,98.40
2019-05-20T00:58:36.213Z,98.30
2019-05-20T01:01:06.836Z,98.50
2019-05-20T01:03:37.421Z,98.60
2019-05-20T01:06:07.975Z,98.50
2019-05-20T01:08:38.403Z,98.60
2019-05-20T01:11:08.883Z,98.60
2019-05-20T01:13:39.365Z,98.70
2019-05-20T01:16:11.270Z,98.90
2019-05-20T01:18:41.972Z,99.00
2019-05-20T01:21:12.474Z,99.00
2019-05-20T01:23:42.957Z,99.00
2019-05-20T01:26:13.502Z,98.60
2019-05-20T01:28:44.195Z,98.60
2019-05-20T01:31:14.957Z,98.50
2019-05-20T01:33:45.394Z,98.50
2019-05-20T01:36:16.440Z,98.40
2019-05-20T01:38:46.986Z,98.70
2019-05-20T01:41:17.830Z,98.40
2019-05-20T01:43:48.356Z,98.30
2019-05-20T01:46:18.906Z,98.40
2019-05-20T01:48:49.459Z,98.60
2019-05-20T01:51:19.949Z,98.70
2019-05-20T01:53:50.429Z,98.70
2019-05-20T01:56:21.003Z,98.70
2019-05-20T01:58:51.598Z,98.60
2019-05-20T02:01:22.100Z,98.40
2019-05-20T02:03:52.642Z,98.30
2019-05-20T02:06:23.183Z,98.50
2019-05-20T02:08:53.700Z,98.60
2019-05-20T02:11:24.215Z,98.60
2019-05-20T02:14:01.711Z,98.60
2019-05-20T02:16:32.268Z,98.50
2019-05-20T02:19:03.287Z,98.50
2019-05-20T02:21:33.912Z,98.60
2019-05-20T02:24:04.618Z,98.90
2019-05-20T02:26:35.868Z,99.10
2019-05-20T02:29:06.536Z,99.00
2019-05-20T02:31:37.052Z,98.90
2019-05-20T02:34:07.525Z,98.90
2019-05-20T02:36:38.003Z,99.00
2019-05-20T02:39:08.499Z,99.00
2019-05-20T02:41:39.019Z,99.00
2019-05-20T02:44:09.807Z,98.90
2019-05-20T02:46:40.244Z,98.60
2019-05-20T02:49:10.725Z,98.50
2019-05-20T02:51:41.256Z,98.80
2019-05-20T02:54:11.721Z,98.90
2019-05-20T02:56:42.189Z,98.80
2019-05-20T02:59:12.658Z,99.00
2019-05-20T03:01:43.146Z,98.90
2019-05-20T03:04:13.670Z,99.00
2019-05-20T03:06:46.930Z,98.90
2019-05-20T03:09:17.408Z,99.10
2019-05-20T03:11:47.901Z,98.90
2019-05-20T03:14:18.347Z,99.00
2019-05-20T03:16:48.831Z,99.10
2019-05-20T03:19:19.600Z,99.00
2019-05-20T03:21:50.186Z,98.80
2019-05-20T03:24:20.693Z,98.70
2019-05-20T03:26:51.657Z,98.60
2019-05-20T03:29:22.123Z,98.50
2019-05-20T03:31:52.600Z,98.50
2019-05-20T03:34:43.363Z,98.70
2019-05-20T03:36:55.323Z,98.70
2019-05-20T03:39:25.808Z,98.70
2019-05-20T03:41:56.357Z,98.80
2019-05-20T03:44:26.833Z,98.80
2019-05-20T03:46:57.354Z,98.80
2019-05-20T03:49:27.821Z,99.00
2019-05-20T03:51:58.626Z,98.90
2019-05-20T03:54:29.081Z,98.90
2019-05-20T03:56:59.611Z,98.80
2019-05-20T03:59:30.071Z,98.80
2019-05-20T04:02:00.603Z,99.10
2019-05-20T04:04:31.078Z,98.80
2019-05-20T04:07:01.581Z,98.70
2019-05-20T04:09:32.060Z,98.60
2019-05-20T04:12:02.551Z,98.60
2019-05-20T04:14:33.023Z,98.60
2019-05-20T04:17:03.599Z,98.50
2019-05-20T04:19:34.043Z,98.50
2019-05-20T04:22:04.532Z,98.40
2019-05-20T04:24:35.004Z,98.20
2019-05-20T04:27:05.487Z,98.30
2019-05-20T04:29:35.982Z,98.30
2019-05-20T04:32:06.614Z,98.30
2019-05-20T04:34:37.063Z,98.30
2019-05-20T04:37:07.569Z,98.40
2019-05-20T04:39:38.075Z,98.40
2019-05-20T04:42:08.551Z,98.70
2019-05-20T04:44:39.102Z,98.80
2019-05-20T04:47:09.597Z,98.70
2019-05-20T04:49:40.138Z,98.70
2019-05-20T04:52:10.642Z,98.90
2019-05-20T04:54:41.101Z,99.10
2019-05-20T04:57:11.668Z,99.30
2019-05-20T04:59:42.229Z,99.50
2019-05-20T05:02:12.699Z,99.70
2019-05-20T05:04:43.244Z,99.80
2019-05-20T05:07:13.912Z,99.80
2019-05-20T05:09:44.382Z,99.80
2019-05-20T05:12:15.209Z,99.90
2019-05-20T05:14:45.747Z,99.90
2019-05-20T05:17:16.199Z,99.90
2019-05-20T05:19:46.682Z,99.90
2019-05-20T05:22:17.223Z,99.90
2019-05-20T05:24:47.669Z,99.90
2019-05-20T05:27:18.147Z,99.90
2019-05-20T05:29:48.738Z,99.90
2019-05-20T05:32:38.329Z,99.90
2019-05-20T05:35:08.996Z,99.90
2019-05-20T05:37:39.468Z,99.90
2019-05-20T05:40:11.000Z,99.90
2019-05-20T05:42:41.501Z,99.90
2019-05-20T05:45:13.281Z,99.90
2019-05-20T05:47:44.167Z,99.90
2019-05-20T05:50:14.980Z,99.90
2019-05-20T05:52:45.439Z,99.90
2019-05-20T05:55:15.980Z,99.80
2019-05-20T05:57:46.737Z,99.40
2019-05-20T06:00:18.229Z,99.50
2019-05-20T06:02:48.886Z,99.40
2019-05-20T06:05:22.347Z,99.40
2019-05-20T06:07:52.864Z,99.50
2019-05-20T06:10:23.578Z,99.80
2019-05-20T06:12:54.069Z,99.60
2019-05-20T06:15:24.730Z,99.70
2019-05-20T06:17:55.234Z,99.80
2019-05-20T06:20:25.718Z,99.90
2019-05-20T06:22:56.214Z,99.70
2019-05-20T06:25:26.710Z,99.50
2019-05-20T06:27:57.325Z,99.60
2019-05-20T06:30:41.320Z,99.30
2019-05-20T06:33:12.133Z,99.10
2019-05-20T06:35:42.686Z,99.00
2019-05-20T06:38:18.581Z,99.20
2019-05-20T06:40:49.110Z,99.20
2019-05-20T06:43:19.670Z,99.10
2019-05-20T06:45:50.184Z,99.40
2019-05-20T06:48:20.718Z,99.30
2019-05-20T06:50:51.205Z,99.30
2019-05-20T06:53:21.876Z,99.20
2019-05-20T06:55:52.568Z,99.10
2019-05-20T06:58:23.047Z,99.10
2019-05-20T07:00:53.561Z,99.40
2019-05-20T07:03:24.153Z,99.10
2019-05-20T07:05:54.884Z,99.10
2019-05-20T07:08:25.657Z,98.80
2019-05-20T07:10:56.338Z,98.40
2019-05-20T07:13:26.847Z,98.10
2019-05-20T07:15:57.462Z,98.10
2019-05-20T07:18:28.311Z,98.30
2019-05-20T07:20:58.926Z,98.50
2019-05-20T07:23:29.605Z,98.00
2019-05-20T07:26:00.069Z,98.00
2019-05-20T07:28:30.743Z,97.80
2019-05-20T07:31:01.256Z,97.80
2019-05-20T07:33:31.811Z,97.30
2019-05-20T07:36:02.540Z,97.50
2019-05-20T07:38:33.318Z,97.70
2019-05-20T07:41:03.830Z,97.70
2019-05-20T07:43:34.591Z,97.80
2019-05-20T07:46:05.799Z,98.10
2019-05-20T07:48:37.954Z,98.40
2019-05-20T07:51:09.729Z,98.50
2019-05-20T07:53:40.499Z,98.90
2019-05-20T07:56:17.675Z,99.00
2019-05-20T07:58:58.184Z,99.10
2019-05-20T08:01:28.796Z,99.30
2019-05-20T08:03:59.270Z,99.50
2019-05-20T08:06:29.869Z,99.10
2019-05-20T08:09:01.478Z,99.20
2019-05-20T08:11:33.630Z,99.20
2019-05-20T08:14:04.214Z,98.90
2019-05-20T08:16:34.889Z,99.00
2019-05-20T08:19:05.661Z,98.90
2019-05-20T08:21:36.165Z,98.50
2019-05-20T08:24:06.646Z,98.60
2019-05-20T08:26:37.109Z,98.90
2019-05-20T08:29:07.812Z,98.90
2019-05-20T08:31:38.375Z,98.90
2019-05-20T08:34:08.857Z,98.70
2019-05-20T08:36:39.401Z,98.50
2019-05-20T08:39:10.110Z,98.40
2019-05-20T08:41:41.028Z,97.90
2019-05-20T08:44:11.559Z,97.80
2019-05-20T08:46:42.078Z,97.80
2019-05-20T08:49:12.888Z,97.80
2019-05-20T08:51:43.329Z,97.80
2019-05-20T08:54:13.822Z,97.40
2019-05-20T08:56:44.421Z,97.70
2019-05-20T08:59:14.883Z,97.40
2019-05-20T09:01:50.869Z,97.40
2019-05-20T09:04:35.844Z,97.30
2019-05-20T09:07:29.273Z,96.80
2019-05-20T09:10:01.770Z,97.20
2019-05-20T09:13:06.637Z,97.20
2019-05-20T09:16:07.630Z,96.90
2019-05-20T09:19:15.273Z,96.50
2019-05-20T09:21:51.106Z,96.60
2019-05-20T09:24:26.862Z,96.40
2019-05-20T09:27:18.542Z,96.20
2019-05-20T09:29:49.228Z,95.80
2019-05-20T09:35:39.462Z,95.00
2019-05-20T09:38:20.016Z,94.50
2019-05-20T09:40:48.671Z,95.20
2019-05-20T09:43:19.352Z,95.50
2019-05-20T09:46:05.550Z,95.60
2019-05-20T09:48:25.172Z,95.60
2019-05-20T09:50:59.368Z,95.40
2019-05-20T09:53:30.043Z,94.90
2019-05-20T09:56:00.779Z,95.20
2019-05-20T09:58:31.382Z,94.70
2019-05-20T10:01:02.038Z,94.70
2019-05-20T10:03:32.497Z,94.60
2019-05-20T10:06:03.171Z,94.50
2019-05-20T10:08:40.963Z,94.40
2019-05-20T10:11:06.114Z,94.40
2019-05-20T10:13:36.678Z,94.40
2019-05-20T10:16:07.868Z,94.00
2019-05-20T10:18:39.445Z,93.90
2019-05-20T10:21:10.762Z,94.10
2019-05-20T10:23:41.268Z,94.10
2019-05-20T10:26:11.797Z,94.60
2019-05-20T10:28:46.825Z,94.50
2019-05-20T10:31:14.479Z,94.70
2019-05-20T10:33:45.008Z,94.80
2019-05-20T10:36:15.650Z,95.10
2019-05-20T10:38:57.511Z,95.50
2019-05-20T10:41:19.102Z,95.40
2019-05-20T10:43:49.878Z,95.40
2019-05-20T10:46:22.526Z,95.50
2019-05-20T10:51:49.895Z,95.30
2019-05-20T10:54:20.638Z,95.10
2019-05-20T10:57:27.433Z,94.90
2019-05-20T10:59:59.913Z,94.70
2019-05-20T11:02:57.841Z,94.20
2019-05-20T11:05:43.977Z,94.40
2019-05-20T11:08:21.691Z,94.20
2019-05-20T11:10:57.243Z,94.30
2019-05-20T11:13:37.223Z,93.90
2019-05-20T11:16:14.131Z,93.90
2019-05-20T11:18:45.046Z,93.70
2019-05-20T11:21:23.392Z,93.50
2019-05-20T11:23:54.181Z,93.40
2019-05-20T11:26:24.605Z,93.30
2019-05-20T11:28:57.160Z,93.30
2019-05-20T11:31:27.864Z,93.50
2019-05-20T11:34:04.605Z,93.20
2019-05-20T11:36:35.143Z,93.20
2019-05-20T11:39:32.445Z,93.20
2019-05-20T11:41:59.740Z,93.50
2019-05-20T11:44:43.092Z,93.50
2019-05-20T11:47:15.503Z,93.50
2019-05-20T11:49:59.173Z,93.40
2019-05-20T11:52:32.735Z,93.20
2019-05-20T11:55:06.350Z,93.60
2019-05-20T11:58:14.489Z,93.80
2019-05-20T12:00:45.745Z,93.80
2019-05-20T12:03:38.196Z,94.30
2019-05-20T12:06:34.255Z,94.30
2019-05-20T12:09:08.004Z,94.50
2019-05-20T12:11:39.418Z,94.50
2019-05-20T12:14:09.964Z,94.40
2019-05-20T12:16:40.499Z,94.40
2019-05-20T12:19:38.447Z,94.40
2019-05-20T12:22:09.873Z,94.10
2019-05-20T12:24:40.708Z,93.90
2019-05-20T12:27:11.242Z,93.80
2019-05-20T12:29:42.087Z,93.80
2019-05-20T12:32:12.612Z,93.80
2019-05-20T12:34:43.545Z,93.60
2019-05-20T12:37:14.133Z,93.60
2019-05-20T12:39:46.574Z,93.10
2019-05-20T12:42:21.908Z,93.10
2019-05-20T12:44:52.373Z,92.70
2019-05-20T12:47:23.130Z,92.70
2019-05-20T12:49:53.632Z,92.60
2019-05-20T12:52:24.124Z,92.50
2019-05-20T12:55:07.010Z,92.50
2019-05-20T12:57:26.796Z,93.20
2019-05-20T13:00:04.190Z,92.50
2019-05-20T13:02:34.677Z,92.50
2019-05-20T13:05:12.455Z,92.30
2019-05-20T13:07:43.205Z,92.10
2019-05-20T13:10:28.825Z,92.20
2019-05-20T13:12:46.662Z,92.20
2019-05-20T13:15:26.968Z,91.80
2019-05-20T13:17:57.674Z,91.80
2019-05-20T13:20:28.227Z,92.50
2019-05-20T13:23:13.932Z,92.00
2019-05-20T13:25:44.071Z,91.60
2019-05-20T13:28:34.810Z,91.50
2019-05-20T13:31:07.195Z,91.70
2019-05-20T13:34:11.865Z,92.00
2019-05-20T13:36:42.670Z,92.10
2019-05-20T13:39:37.491Z,92.10
2019-05-20T13:42:35.472Z,92.30
2019-05-20T13:45:28.688Z,92.10
2019-05-20T13:48:24.233Z,91.70
2019-05-20T13:50:58.286Z,92.00
2019-05-20T13:53:28.800Z,91.80
2019-05-20T13:56:07.738Z,91.90
2019-05-20T13:58:38.413Z,91.80
2019-05-20T14:01:08.995Z,92.00
2019-05-20T14:03:39.513Z,92.00
2019-05-20T14:06:10.047Z,92.30
2019-05-20T14:08:41.493Z,92.20
2019-05-20T14:11:12.182Z,92.30
2019-05-20T14:13:43.983Z,92.40
2019-05-20T14:16:14.730Z,92.70
2019-05-20T14:18:45.291Z,93.00
2019-05-20T14:21:15.863Z,93.00
2019-05-20T14:23:46.363Z,92.80
2019-05-20T14:26:16.811Z,93.20
2019-05-20T14:28:47.344Z,93.10
2019-05-20T14:31:18.197Z,93.20
2019-05-20T14:33:50.108Z,93.00
2019-05-20T14:36:38.774Z,93.00
2019-05-20T14:38:53.569Z,93.70
2019-05-20T14:41:26.431Z,94.20
2019-05-20T14:44:41.023Z,94.20
2019-05-20T14:47:21.565Z,94.30
2019-05-20T14:49:52.047Z,94.30
2019-05-20T14:52:22.607Z,94.30
2019-05-20T14:54:53.219Z,94.30
2019-05-20T14:57:33.913Z,94.00
2019-05-20T15:00:05.819Z,94.10
2019-05-20T15:02:41.986Z,94.10
2019-05-20T15:05:12.945Z,93.90
2019-05-20T15:07:43.542Z,94.00
2019-05-20T15:10:15.328Z,93.80
2019-05-20T15:12:45.992Z,93.80
2019-05-20T15:15:16.520Z,93.60
2019-05-20T15:17:50.757Z,93.80
2019-05-20T15:20:27.251Z,93.40
2019-05-20T15:22:57.746Z,93.40
2019-05-20T15:25:32.892Z,93.10
2019-05-20T15:28:03.627Z,93.00
2019-05-20T15:30:45.357Z,92.80
2019-05-20T15:33:16.064Z,92.80
2019-05-20T15:35:46.667Z,93.00
2019-05-20T15:38:17.125Z,92.70
2019-05-20T15:40:47.645Z,92.40
2019-05-20T15:43:18.131Z,92.50
2019-05-20T15:45:54.334Z,92.50
2019-05-20T15:48:24.805Z,92.50
2019-05-20T15:50:55.273Z,92.70
2019-05-20T15:53:25.797Z,92.50
2019-05-20T15:55:56.297Z,92.30
2019-05-20T15:58:26.944Z,92.10
2019-05-20T16:01:01.134Z,92.10
2019-05-20T16:03:31.625Z,92.00
2019-05-20T16:06:02.150Z,91.90
2019-05-20T16:08:32.775Z,92.20
2019-05-20T16:11:06.669Z,91.80
2019-05-20T16:13:35.728Z,92.10
2019-05-20T16:16:13.254Z,92.20
2019-05-20T16:18:44.232Z,92.00
2019-05-20T16:21:18.270Z,92.30
2019-05-20T16:23:48.952Z,92.40
2019-05-20T16:26:19.519Z,92.20
2019-05-20T16:28:50.188Z,92.20
2019-05-20T16:31:20.773Z,92.30
2019-05-20T16:33:51.278Z,92.10
2019-05-20T16:36:21.781Z,92.40
2019-05-20T16:38:53.978Z,92.80
2019-05-20T16:41:24.478Z,92.70
2019-05-20T16:43:55.312Z,92.90
2019-05-20T16:46:25.835Z,93.20
2019-05-20T16:48:56.491Z,93.50
2019-05-20T16:51:27.078Z,93.70
2019-05-20T16:53:57.627Z,93.80
2019-05-20T16:56:28.228Z,93.90
2019-05-20T16:58:58.781Z,94.20
2019-05-20T17:01:29.381Z,94.00
2019-05-20T17:03:59.920Z,93.80
2019-05-20T17:06:30.805Z,93.60
2019-05-20T17:09:01.302Z,93.60
2019-05-20T17:11:31.789Z,93.70
2019-05-20T17:14:02.349Z,93.60
2019-05-20T17:16:32.826Z,93.90
2019-05-20T17:19:03.332Z,94.00
2019-05-20T17:21:33.883Z,94.40
2019-05-20T17:24:04.363Z,94.50
2019-05-20T17:26:34.919Z,94.30
2019-05-20T17:29:05.617Z,94.50
2019-05-20T17:31:36.161Z,94.60
2019-05-20T17:34:06.658Z,94.60
2019-05-20T17:36:37.166Z,94.40
2019-05-20T17:39:08.025Z,94.40
2019-05-20T17:41:38.533Z,94.40
2019-05-20T17:44:09.036Z,94.30
2019-05-20T17:46:39.614Z,94.60
2019-05-20T17:49:10.119Z,94.60
2019-05-20T17:51:43.273Z,94.50
2019-05-20T17:54:12.931Z,94.70
2019-05-20T17:56:43.462Z,94.50
2019-05-20T17:59:13.945Z,94.70
2019-05-20T18:01:44.411Z,94.60
2019-05-20T18:04:14.940Z,94.90
2019-05-20T18:06:45.444Z,95.20
2019-05-20T18:09:16.046Z,95.30
2019-05-20T18:11:46.540Z,95.30
2019-05-20T18:14:17.088Z,95.50
2019-05-20T18:16:47.642Z,95.60
2019-05-20T18:19:18.137Z,95.60
2019-05-20T18:21:48.705Z,95.70
2019-05-20T18:24:19.180Z,95.70
2019-05-20T18:26:49.664Z,96.00
2019-05-20T18:29:20.178Z,96.30
2019-05-20T18:31:50.702Z,96.50
2019-05-20T18:34:21.314Z,96.70
2019-05-20T18:36:51.769Z,96.70
2019-05-20T18:39:22.291Z,96.80
2019-05-20T18:41:52.975Z,97.00
2019-05-20T18:44:23.429Z,97.30
2019-05-20T18:46:54.015Z,97.80
2019-05-20T18:49:24.627Z,97.50
2019-05-20T18:51:55.099Z,97.30
2019-05-20T18:54:25.525Z,97.20
2019-05-20T18:56:56.043Z,97.10
2019-05-20T18:59:26.522Z,97.10
2019-05-20T19:02:04.986Z,96.80
2019-05-20T19:04:29.465Z,96.60
2019-05-20T19:07:00.092Z,96.40
2019-05-20T19:09:30.606Z,96.40
2019-05-20T19:12:01.115Z,96.50
2019-05-20T19:14:31.694Z,96.50
2019-05-20T19:17:02.256Z,96.80
2019-05-20T19:19:32.755Z,97.10
2019-05-20T19:22:03.287Z,96.80
2019-05-20T19:24:33.835Z,97.10
2019-05-20T19:27:05.418Z,97.20
2019-05-20T19:29:35.854Z,97.20
2019-05-20T19:32:06.733Z,97.30
2019-05-20T19:34:37.232Z,97.10
2019-05-20T19:37:07.746Z,97.00
2019-05-20T19:39:38.242Z,97.10
2019-05-20T19:42:08.759Z,97.00
2019-05-20T19:44:39.404Z,97.30
2019-05-20T19:47:09.839Z,97.60
2019-05-20T19:49:42.394Z,97.50
2019-05-20T19:52:12.641Z,97.60
2019-05-20T19:54:43.127Z,97.70
2019-05-20T19:57:13.705Z,97.50
2019-05-20T19:59:44.195Z,97.30
2019-05-20T20:02:17.485Z,97.30
2019-05-20T20:04:47.313Z,97.40
2019-05-20T20:07:17.982Z,97.40
2019-05-20T20:09:49.585Z,97.70
2019-05-20T20:12:20.459Z,97.50
2019-05-20T20:14:51.007Z,97.40
2019-05-20T20:17:21.735Z,97.30
2019-05-20T20:19:52.283Z,97.40
2019-05-20T20:22:22.771Z,97.40
2019-05-20T20:24:53.239Z,97.40
2019-05-20T20:27:23.758Z,97.40
2019-05-20T20:29:54.273Z,97.40
2019-05-20T20:32:37.426Z,97.40
2019-05-20T20:34:57.553Z,97.40
2019-05-20T20:37:28.078Z,97.30
2019-05-20T20:39:58.788Z,97.30
2019-05-20T20:42:29.823Z,97.20
2019-05-20T20:45:00.494Z,97.40
2019-05-20T20:47:41.155Z,97.40
2019-05-20T20:50:04.119Z,97.60
2019-05-20T20:52:34.940Z,97.50
2019-05-20T20:55:05.749Z,97.90
2019-05-20T20:57:36.209Z,98.00
2019-05-20T21:00:08.652Z,97.90
2019-05-20T21:02:52.149Z,98.10
2019-05-20T21:05:11.696Z,98.30
2019-05-20T21:07:42.322Z,98.50
2019-05-20T21:10:12.940Z,98.50
2019-05-20T21:12:43.391Z,98.50
2019-05-20T21:15:14.181Z,98.70
2019-05-20T21:17:44.965Z,98.70
2019-05-20T21:20:15.446Z,98.70
2019-05-20T21:22:45.950Z,98.80
2019-05-20T21:25:16.493Z,98.70
2019-05-20T21:27:46.962Z,98.70
2019-05-20T21:30:18.902Z,98.60
2019-05-20T21:32:49.397Z,98.60
2019-05-20T21:35:19.912Z,98.70
2019-05-20T21:37:50.396Z,98.70
2019-05-20T21:40:20.934Z,98.70
2019-05-20T21:42:51.445Z,98.70
2019-05-20T21:45:21.985Z,98.80
2019-05-20T21:47:52.658Z,99.00
2019-05-20T21:50:23.802Z,99.30
2019-05-20T21:52:54.620Z,99.40
2019-05-20T21:55:25.440Z,99.70
2019-05-20T21:57:56.619Z,99.50
2019-05-20T22:00:56.949Z,99.40
2019-05-20T22:03:28.238Z,99.50
2019-05-20T22:05:59.104Z,99.40
2019-05-20T22:08:29.855Z,99.40
2019-05-20T22:11:01.040Z,99.40
2019-05-20T22:13:31.781Z,99.60
2019-05-20T22:16:02.563Z,99.70
2019-05-20T22:18:33.337Z,99.70
2019-05-20T22:21:04.210Z,99.60
2019-05-20T22:23:46.588Z,99.70
2019-05-20T22:26:17.210Z,99.70
2019-05-20T22:28:47.836Z,99.70
2019-05-20T22:31:18.558Z,99.80
2019-05-20T22:33:49.255Z,99.80
2019-05-20T22:36:19.858Z,99.80
2019-05-20T22:38:50.453Z,99.70
2019-05-20T22:41:21.072Z,99.90
2019-05-20T22:43:51.777Z,99.90
2019-05-20T22:46:22.484Z,99.90
2019-05-20T22:48:53.078Z,99.90
2019-05-20T22:51:23.804Z,99.90
2019-05-20T22:53:54.470Z,99.90
2019-05-20T22:56:25.082Z,99.90
2019-05-20T22:58:55.805Z,99.80
2019-05-20T23:01:26.412Z,99.90
2019-05-20T23:03:57.188Z,99.90
2019-05-20T23:06:27.927Z,99.90
2019-05-20T23:08:58.662Z,99.90
2019-05-20T23:11:29.337Z,99.90
2019-05-20T23:14:00.006Z,99.80
2019-05-20T23:16:30.722Z,99.90
2019-05-20T23:19:01.372Z,99.90
2019-05-20T23:21:32.006Z,99.90
2019-05-20T23:24:02.668Z,99.90
2019-05-20T23:26:33.312Z,99.90
2019-05-20T23:29:03.955Z,99.90
2019-05-20T23:31:34.622Z,99.90
2019-05-20T23:34:12.736Z,99.90
2019-05-20T23:36:37.661Z,99.90
2019-05-20T23:39:08.359Z,99.90
2019-05-20T23:41:38.976Z,99.90
2019-05-20T23:44:09.644Z,99.90
2019-05-20T23:46:40.278Z,99.90
2019-05-20T23:49:10.985Z,99.90
2019-05-20T23:51:41.669Z,99.90
2019-05-20T23:54:12.610Z,99.90
2019-05-20T23:56:43.379Z,99.90
2019-05-20T23:59:13.958Z,99.90
